createdAt,value
2022-12-18T00:01:23.115Z,10.48
2022-12-18T00:03:51.004Z,9.75
2022-12-18T00:06:18.293Z,11.10
2022-12-18T00:08:46.103Z,10.70
2022-12-18T00:11:18.297Z,10.25
2022-12-18T00:13:45.460Z,10.30
2022-12-18T00:16:14.770Z,10.10
2022-12-18T00:18:42.930Z,9.82
2022-12-18T00:21:11.905Z,9.43
2022-12-18T00:23:40.204Z,10.30
2022-12-18T00:26:11.085Z,9.93
2022-12-18T00:28:38.112Z,9.60
2022-12-18T00:31:10.377Z,11.20
2022-12-18T00:33:38.450Z,8.60
2022-12-18T00:36:18.354Z,9.02
2022-12-18T00:38:46.535Z,8.80
2022-12-18T00:41:35.841Z,7.20
2022-12-18T00:44:03.939Z,9.02
2022-12-18T00:46:31.312Z,8.27
2022-12-18T00:48:58.548Z,8.85
2022-12-18T00:51:26.247Z,8.30
2022-12-18T00:53:53.448Z,10.45
2022-12-18T00:56:20.259Z,9.52
2022-12-18T00:58:47.144Z,10.07
2022-12-18T01:01:14.417Z,9.43
2022-12-18T01:03:41.606Z,10.40
2022-12-18T01:06:10.796Z,8.93
2022-12-18T01:08:37.624Z,9.95
2022-12-18T01:11:19.469Z,8.50
2022-12-18T01:13:46.308Z,9.02
2022-12-18T01:16:14.795Z,10.27
2022-12-18T01:18:46.158Z,9.10
2022-12-18T01:21:16.228Z,8.73
2022-12-18T01:23:43.253Z,9.75
2022-12-18T01:26:13.137Z,8.45
2022-12-18T01:28:41.003Z,9.10
2022-12-18T01:31:25.972Z,9.80
2022-12-18T01:33:53.925Z,9.00
2022-12-18T01:36:25.424Z,9.32
2022-12-18T01:38:53.128Z,9.85
2022-12-18T01:41:23.988Z,10.80
2022-12-18T01:43:50.804Z,10.15
2022-12-18T01:46:19.524Z,9.57
2022-12-18T01:48:49.900Z,7.32
2022-12-18T01:51:16.905Z,9.23
2022-12-18T01:53:45.787Z,7.80
2022-12-18T01:56:17.840Z,8.65
2022-12-18T01:59:03.320Z,9.10
2022-12-18T02:01:32.044Z,8.63
2022-12-18T02:04:26.776Z,8.93
2022-12-18T02:07:14.148Z,8.70
2022-12-18T02:09:51.564Z,9.35
2022-12-18T02:12:21.952Z,9.48
2022-12-18T02:14:51.732Z,8.00
2022-12-18T02:17:24.514Z,7.85
2022-12-18T02:20:03.648Z,8.50
2022-12-18T02:23:11.537Z,9.90
2022-12-18T02:26:08.813Z,8.43
2022-12-18T02:28:45.609Z,9.27
2022-12-18T02:31:18.697Z,8.70
2022-12-18T02:33:47.127Z,10.18
2022-12-18T02:36:15.845Z,7.85
2022-12-18T02:38:45.008Z,8.63
2022-12-18T02:41:14.239Z,9.45
2022-12-18T02:43:46.963Z,9.00
2022-12-18T02:46:53.537Z,10.48
2022-12-18T02:49:29.590Z,7.97
2022-12-18T02:52:14.030Z,10.27
2022-12-18T02:55:02.265Z,9.63
2022-12-18T02:57:41.849Z,10.75
2022-12-18T03:00:35.412Z,8.88
2022-12-18T03:03:31.496Z,8.27
2022-12-18T03:06:28.510Z,9.70
2022-12-18T03:09:03.592Z,8.60
2022-12-18T03:11:52.309Z,8.85
2022-12-18T03:14:22.913Z,7.93
2022-12-18T03:16:53.426Z,9.48
2022-12-18T03:19:23.357Z,10.18
2022-12-18T03:21:56.958Z,9.23
2022-12-18T03:24:25.253Z,9.68
2022-12-18T03:26:55.812Z,10.27
2022-12-18T03:29:32.235Z,9.82
2022-12-18T03:32:06.937Z,10.25
2022-12-18T03:34:37.533Z,9.90
2022-12-18T03:37:05.726Z,9.43
2022-12-18T03:39:33.412Z,9.20
2022-12-18T03:42:13.773Z,9.05
2022-12-18T03:44:55.517Z,10.23
2022-12-18T03:47:47.362Z,8.38
2022-12-18T03:50:16.761Z,10.18
2022-12-18T03:53:07.807Z,9.20
2022-12-18T03:55:36.365Z,9.90
2022-12-18T03:58:07.053Z,8.70
2022-12-18T04:00:35.378Z,8.43
2022-12-18T04:03:03.574Z,8.32
2022-12-18T04:05:33.979Z,8.93
2022-12-18T04:08:01.296Z,10.18
2022-12-18T04:10:28.234Z,10.20
2022-12-18T04:12:58.154Z,9.18
2022-12-18T04:15:25.169Z,10.15
2022-12-18T04:17:52.153Z,9.60
2022-12-18T04:20:18.961Z,9.38
2022-12-18T04:22:45.780Z,6.80
2022-12-18T04:25:13.201Z,7.85
2022-12-18T04:27:40.071Z,9.45
2022-12-18T04:30:07.719Z,9.63
2022-12-18T04:32:35.378Z,9.52
2022-12-18T04:35:02.510Z,9.10
2022-12-18T04:37:29.298Z,9.13
2022-12-18T04:39:56.122Z,10.38
2022-12-18T04:42:22.967Z,10.45
2022-12-18T04:44:49.902Z,9.35
2022-12-18T04:47:16.777Z,9.93
2022-12-18T04:49:43.623Z,9.45
2022-12-18T04:52:10.463Z,9.60
2022-12-18T04:54:37.335Z,8.95
2022-12-18T04:57:04.271Z,7.50
2022-12-18T04:59:31.226Z,9.48
2022-12-18T05:01:58.092Z,9.00
2022-12-18T05:04:25.114Z,10.02
2022-12-18T05:06:51.914Z,7.25
2022-12-18T05:09:18.723Z,9.75
2022-12-18T05:11:47.740Z,7.78
2022-12-18T05:14:14.609Z,9.98
2022-12-18T05:16:41.542Z,9.05
2022-12-18T05:19:08.432Z,11.05
2022-12-18T05:21:35.243Z,9.15
2022-12-18T05:24:02.054Z,12.07
2022-12-18T05:26:28.902Z,10.73
2022-12-18T05:28:55.727Z,9.65
2022-12-18T05:31:22.551Z,12.00
2022-12-18T05:33:49.419Z,11.05
2022-12-18T05:36:16.530Z,11.13
2022-12-18T05:38:43.461Z,9.90
2022-12-18T05:41:10.581Z,9.80
2022-12-18T05:43:39.641Z,9.32
2022-12-18T05:46:09.223Z,11.07
2022-12-18T05:48:36.165Z,10.10
2022-12-18T05:51:12.017Z,9.98
2022-12-18T05:53:39.607Z,11.75
2022-12-18T05:56:09.847Z,9.80
2022-12-18T05:58:36.794Z,10.43
2022-12-18T06:01:14.450Z,9.52
2022-12-18T06:03:41.722Z,9.45
2022-12-18T06:06:20.821Z,11.55
2022-12-18T06:08:48.037Z,10.15
2022-12-18T06:11:19.805Z,10.60
2022-12-18T06:13:47.497Z,9.00
2022-12-18T06:16:14.381Z,11.15
2022-12-18T06:18:41.283Z,10.18
2022-12-18T06:21:08.155Z,10.75
2022-12-18T06:23:35.202Z,10.68
2022-12-18T06:26:10.139Z,10.82
2022-12-18T06:28:37.026Z,11.95
2022-12-18T06:31:05.367Z,10.32
2022-12-18T06:33:32.510Z,12.10
2022-12-18T06:36:08.499Z,9.57
2022-12-18T06:38:37.186Z,10.45
2022-12-18T06:41:12.497Z,11.27
2022-12-18T06:43:40.109Z,12.00
2022-12-18T06:46:07.838Z,12.23
2022-12-18T06:48:34.931Z,10.93
2022-12-18T06:51:02.118Z,9.82
2022-12-18T06:53:29.115Z,10.88
2022-12-18T06:56:10.310Z,11.95
2022-12-18T06:58:37.419Z,11.70
2022-12-18T07:01:06.837Z,11.13
2022-12-18T07:03:33.964Z,10.63
2022-12-18T07:06:00.918Z,10.80
2022-12-18T07:08:27.689Z,12.48
2022-12-18T07:10:56.440Z,11.30
2022-12-18T07:13:23.817Z,11.63
2022-12-18T07:15:50.771Z,12.40
2022-12-18T07:18:17.569Z,9.95
2022-12-18T07:20:45.171Z,12.23
2022-12-18T07:23:13.069Z,12.10
2022-12-18T07:25:40.782Z,11.25
2022-12-18T07:28:08.869Z,11.07
2022-12-18T07:30:39.464Z,11.90
2022-12-18T07:33:06.348Z,11.65
2022-12-18T07:35:35.003Z,10.80
2022-12-18T07:38:01.823Z,11.05
2022-12-18T07:40:28.716Z,11.18
2022-12-18T07:42:55.581Z,11.52
2022-12-18T07:45:22.391Z,11.38
2022-12-18T07:47:49.181Z,12.38
2022-12-18T07:50:16.217Z,10.73
2022-12-18T07:52:43.062Z,11.60
2022-12-18T07:55:10.073Z,12.68
2022-12-18T07:57:55.394Z,11.85
2022-12-18T08:00:23.954Z,10.20
2022-12-18T08:02:50.835Z,11.77
2022-12-18T08:05:17.923Z,12.95
2022-12-18T08:07:44.735Z,12.68
2022-12-18T08:10:11.534Z,12.85
2022-12-18T08:12:38.334Z,12.43
2022-12-18T08:15:05.630Z,11.95
2022-12-18T08:17:33.118Z,12.07
2022-12-18T08:20:00.038Z,11.07
2022-12-18T08:22:26.933Z,12.30
2022-12-18T08:24:53.701Z,11.40
2022-12-18T08:27:29.500Z,11.93
2022-12-18T08:29:57.627Z,9.93
2022-12-18T08:32:25.294Z,11.52
2022-12-18T08:34:52.127Z,11.85
2022-12-18T08:37:18.938Z,12.15
2022-12-18T08:39:46.018Z,10.88
2022-12-18T08:42:31.206Z,11.32
2022-12-18T08:44:58.051Z,12.95
2022-12-18T08:47:24.886Z,11.18
2022-12-18T08:49:52.195Z,9.65
2022-12-18T08:52:18.966Z,13.30
2022-12-18T08:54:48.437Z,11.90
2022-12-18T08:57:15.322Z,11.10
2022-12-18T08:59:42.192Z,11.07
2022-12-18T09:02:12.159Z,11.65
2022-12-18T09:04:40.921Z,11.90
2022-12-18T09:07:07.846Z,12.80
2022-12-18T09:09:34.661Z,12.75
2022-12-18T09:12:01.427Z,10.73
2022-12-18T09:14:28.248Z,11.98
2022-12-18T09:16:55.189Z,11.15
2022-12-18T09:19:22.195Z,11.35
2022-12-18T09:21:49.167Z,12.70
2022-12-18T09:24:17.072Z,13.55
2022-12-18T09:26:47.349Z,12.20
2022-12-18T09:29:15.670Z,13.40
2022-12-18T09:31:43.636Z,13.77
2022-12-18T09:34:10.586Z,13.90
2022-12-18T09:36:37.407Z,11.77
2022-12-18T09:39:08.093Z,13.75
2022-12-18T09:41:46.673Z,14.80
2022-12-18T09:44:23.551Z,12.88
2022-12-18T09:46:59.445Z,13.00
2022-12-18T09:49:30.301Z,13.32
2022-12-18T09:52:01.229Z,15.38
2022-12-18T09:54:36.884Z,13.77
2022-12-18T09:57:04.641Z,14.88
2022-12-18T09:59:37.952Z,15.70
2022-12-18T10:02:26.708Z,12.68
2022-12-18T10:05:18.016Z,14.73
2022-12-18T10:07:50.744Z,15.20
2022-12-18T10:10:24.485Z,15.55
2022-12-18T10:13:08.153Z,15.27
2022-12-18T10:15:46.497Z,14.88
2022-12-18T10:18:38.487Z,13.30
2022-12-18T10:21:16.640Z,14.70
2022-12-18T10:24:00.933Z,15.32
2022-12-18T10:26:27.859Z,15.05
2022-12-18T10:28:56.370Z,14.63
2022-12-18T10:31:26.068Z,15.18
2022-12-18T10:33:55.349Z,15.82
2022-12-18T10:36:25.575Z,16.67
2022-12-18T10:38:52.629Z,15.27
2022-12-18T10:41:24.182Z,17.00
2022-12-18T10:44:17.653Z,15.20
2022-12-18T10:46:46.837Z,17.08
2022-12-18T10:49:23.278Z,13.85
2022-12-18T10:51:50.501Z,14.43
2022-12-18T10:54:24.998Z,16.52
2022-12-18T10:56:51.910Z,14.32
2022-12-18T10:59:19.541Z,17.20
2022-12-18T11:01:58.529Z,13.50
2022-12-18T11:04:36.316Z,12.50
2022-12-18T11:07:08.603Z,13.90
2022-12-18T11:09:40.717Z,13.80
2022-12-18T11:12:19.468Z,16.60
2022-12-18T11:14:56.293Z,14.73
2022-12-18T11:17:33.435Z,14.90
2022-12-18T11:20:34.573Z,13.85
2022-12-18T11:23:04.425Z,14.52
2022-12-18T11:25:34.878Z,14.43
2022-12-18T11:28:04.436Z,14.63
2022-12-18T11:30:38.663Z,16.25
2022-12-18T11:33:19.753Z,14.63
2022-12-18T11:35:54.214Z,15.35
2022-12-18T11:38:31.798Z,15.32
2022-12-18T11:41:10.553Z,16.20
2022-12-18T11:43:45.243Z,13.90
2022-12-18T11:46:20.032Z,15.25
2022-12-18T11:48:50.130Z,15.18
2022-12-18T11:51:27.216Z,13.68
2022-12-18T11:53:54.370Z,15.68
2022-12-18T11:56:51.519Z,14.38
2022-12-18T11:59:56.984Z,14.60
2022-12-18T12:03:08.154Z,13.93
2022-12-18T12:06:02.151Z,12.63
2022-12-18T12:08:41.877Z,13.52
2022-12-18T12:11:20.629Z,14.00
2022-12-18T12:14:12.222Z,14.65
2022-12-18T12:16:44.742Z,14.90
2022-12-18T12:19:26.761Z,15.48
2022-12-18T12:22:08.018Z,15.15
2022-12-18T12:24:47.622Z,14.20
2022-12-18T12:27:29.692Z,13.80
2022-12-18T12:29:56.550Z,15.32
2022-12-18T12:32:46.845Z,13.05
2022-12-18T12:35:20.726Z,12.55
2022-12-18T12:38:26.591Z,15.70
2022-12-18T12:41:03.265Z,15.43
2022-12-18T12:43:33.710Z,14.20
2022-12-18T12:46:11.263Z,13.55
2022-12-18T12:49:05.826Z,14.20
2022-12-18T12:51:38.827Z,14.02
2022-12-18T12:54:18.680Z,14.18
2022-12-18T12:57:13.846Z,14.35
2022-12-18T13:00:20.242Z,14.77
2022-12-18T13:02:58.009Z,14.50
2022-12-18T13:05:56.542Z,13.85
2022-12-18T13:08:31.137Z,15.43
2022-12-18T13:11:19.703Z,13.80
2022-12-18T13:13:55.230Z,14.15
2022-12-18T13:16:25.778Z,13.38
2022-12-18T13:19:00.602Z,14.48
2022-12-18T13:21:31.608Z,14.52
2022-12-18T13:24:26.348Z,14.63
2022-12-18T13:26:53.467Z,14.40
2022-12-18T13:29:44.985Z,13.88
2022-12-18T13:32:28.454Z,12.80
2022-12-18T13:35:41.446Z,12.70
2022-12-18T13:38:32.559Z,13.45
2022-12-18T13:41:22.066Z,13.43
2022-12-18T13:43:59.911Z,13.75
2022-12-18T13:46:47.537Z,14.63
2022-12-18T13:49:14.530Z,12.88
2022-12-18T13:51:48.862Z,14.90
2022-12-18T13:54:38.530Z,15.30
2022-12-18T13:57:07.726Z,14.40
2022-12-18T13:59:38.628Z,15.60
2022-12-18T14:02:17.982Z,13.27
2022-12-18T14:04:49.372Z,14.38
2022-12-18T14:07:19.219Z,13.63
2022-12-18T14:10:18.747Z,14.73
2022-12-18T14:13:01.269Z,12.93
2022-12-18T14:15:39.942Z,14.25
2022-12-18T14:18:10.813Z,15.15
2022-12-18T14:20:41.263Z,13.23
2022-12-18T14:23:32.239Z,14.95
2022-12-18T14:26:05.176Z,13.82
2022-12-18T14:28:33.144Z,13.57
2022-12-18T14:31:00.101Z,13.43
2022-12-18T14:33:28.855Z,13.32
2022-12-18T14:36:05.475Z,14.80
2022-12-18T14:38:35.347Z,14.40
2022-12-18T14:41:06.499Z,14.43
2022-12-18T14:43:35.839Z,13.68
2022-12-18T14:46:05.968Z,13.50
2022-12-18T14:48:37.743Z,13.43
2022-12-18T14:51:06.617Z,13.00
2022-12-18T14:53:36.990Z,13.20
2022-12-18T14:56:11.311Z,14.43
2022-12-18T14:58:38.121Z,12.57
2022-12-18T15:01:05.123Z,13.73
2022-12-18T15:03:33.089Z,15.00
2022-12-18T15:06:17.217Z,14.85
2022-12-18T15:08:44.089Z,13.88
2022-12-18T15:11:37.436Z,14.75
2022-12-18T15:14:43.165Z,13.00
2022-12-18T15:17:22.442Z,13.23
2022-12-18T15:19:54.454Z,13.32
2022-12-18T15:22:34.739Z,13.40
2022-12-18T15:25:02.469Z,13.05
2022-12-18T15:27:38.802Z,13.73
2022-12-18T15:30:11.093Z,12.88
2022-12-18T15:32:39.733Z,11.23
2022-12-18T15:35:12.013Z,12.35
2022-12-18T15:37:39.001Z,12.55
2022-12-18T15:40:18.707Z,13.60
2022-12-18T15:43:06.057Z,11.90
2022-12-18T15:45:32.949Z,13.50
2022-12-18T15:48:00.234Z,12.13
2022-12-18T15:50:27.035Z,13.25
2022-12-18T15:52:56.564Z,12.77
2022-12-18T15:55:43.735Z,13.50
2022-12-18T15:58:12.885Z,12.50
2022-12-18T16:00:41.557Z,11.50
2022-12-18T16:03:10.334Z,12.45
2022-12-18T16:05:37.414Z,12.20
2022-12-18T16:08:04.352Z,10.52
2022-12-18T16:10:31.197Z,12.23
2022-12-18T16:12:58.049Z,10.68
2022-12-18T16:15:25.205Z,12.30
2022-12-18T16:17:52.914Z,12.85
2022-12-18T16:20:23.283Z,13.88
2022-12-18T16:22:50.379Z,13.60
2022-12-18T16:25:23.841Z,14.07
2022-12-18T16:27:50.993Z,12.85
2022-12-18T16:30:22.919Z,14.48
2022-12-18T16:32:50.022Z,10.52
2022-12-18T16:35:17.499Z,12.20
2022-12-18T16:37:44.849Z,12.40
2022-12-18T16:40:14.876Z,13.02
2022-12-18T16:42:43.622Z,13.93
2022-12-18T16:45:15.983Z,12.13
2022-12-18T16:47:42.779Z,12.57
2022-12-18T16:50:10.482Z,11.65
2022-12-18T16:52:37.746Z,12.60
2022-12-18T16:55:04.978Z,11.82
2022-12-18T16:57:31.830Z,11.50
2022-12-18T17:00:04.368Z,10.70
2022-12-18T17:02:32.416Z,12.02
2022-12-18T17:04:59.518Z,10.82
2022-12-18T17:07:27.185Z,11.32
2022-12-18T17:09:54.605Z,12.18
2022-12-18T17:12:21.880Z,13.40
2022-12-18T17:14:48.831Z,12.45
2022-12-18T17:17:23.947Z,12.40
2022-12-18T17:19:52.192Z,12.15
2022-12-18T17:22:20.004Z,12.02
2022-12-18T17:24:47.934Z,12.38
2022-12-18T17:27:15.346Z,13.18
2022-12-18T17:29:47.219Z,13.23
2022-12-18T17:32:15.235Z,12.32
2022-12-18T17:34:42.021Z,12.70
2022-12-18T17:37:09.068Z,11.90
2022-12-18T17:39:35.982Z,13.27
2022-12-18T17:42:02.807Z,12.98
2022-12-18T17:44:29.946Z,10.63
2022-12-18T17:46:56.833Z,12.00
2022-12-18T17:49:23.665Z,12.27
2022-12-18T17:51:51.487Z,12.02
2022-12-18T17:54:18.316Z,11.88
2022-12-18T17:56:45.394Z,11.88
2022-12-18T17:59:12.534Z,11.60
2022-12-18T18:01:44.405Z,12.25
2022-12-18T18:04:12.618Z,13.63
2022-12-18T18:06:39.660Z,11.30
2022-12-18T18:09:09.239Z,12.45
2022-12-18T18:12:01.395Z,12.57
2022-12-18T18:14:28.329Z,11.98
2022-12-18T18:16:55.109Z,11.43
2022-12-18T18:19:25.443Z,13.00
2022-12-18T18:21:54.005Z,12.90
2022-12-18T18:24:23.571Z,12.15
2022-12-18T18:26:50.820Z,13.75
2022-12-18T18:29:23.847Z,12.02
2022-12-18T18:31:53.881Z,12.02
2022-12-18T18:34:23.214Z,12.98
2022-12-18T18:36:50.366Z,11.80
2022-12-18T18:39:17.143Z,10.80
2022-12-18T18:41:47.666Z,12.40
2022-12-18T18:44:16.526Z,11.80
2022-12-18T18:46:43.628Z,11.50
2022-12-18T18:49:10.771Z,13.23
2022-12-18T18:51:37.672Z,12.13
2022-12-18T18:54:04.586Z,13.02
2022-12-18T18:59:19.258Z,11.75
2022-12-18T19:01:50.814Z,12.50
2022-12-18T19:04:17.716Z,11.57
2022-12-18T19:06:46.768Z,13.65
2022-12-18T19:09:14.046Z,12.68
2022-12-18T19:11:59.524Z,12.20
2022-12-18T19:14:26.295Z,14.10
2022-12-18T19:16:54.175Z,12.90
2022-12-18T19:19:21.998Z,12.10
2022-12-18T19:21:50.105Z,11.60
2022-12-18T19:24:16.930Z,12.30
2022-12-18T19:26:43.885Z,12.02
2022-12-18T19:29:12.150Z,11.02
2022-12-18T19:31:39.030Z,11.45
2022-12-18T19:34:07.118Z,11.82
2022-12-18T19:36:39.155Z,11.82
2022-12-18T19:39:15.712Z,10.52
2022-12-18T19:41:43.862Z,10.25
2022-12-18T19:44:13.724Z,9.95
2022-12-18T19:46:42.025Z,11.10
2022-12-18T19:49:17.643Z,9.48
2022-12-18T19:51:45.798Z,10.90
2022-12-18T19:54:17.172Z,9.80
2022-12-18T19:56:45.412Z,10.00
2022-12-18T19:59:12.473Z,10.88
2022-12-18T20:01:39.597Z,9.93
2022-12-18T20:04:06.764Z,10.30
2022-12-18T20:06:36.927Z,9.23
2022-12-18T20:09:06.096Z,10.70
2022-12-18T20:11:40.248Z,10.35
2022-12-18T20:14:13.133Z,9.93
2022-12-18T20:16:40.601Z,9.88
2022-12-18T20:19:08.836Z,10.02
2022-12-18T20:21:36.412Z,9.85
2022-12-18T20:24:03.564Z,9.70
2022-12-18T20:26:30.603Z,9.38
2022-12-18T20:28:57.419Z,11.82
2022-12-18T20:31:24.686Z,9.23
2022-12-18T20:33:53.300Z,9.57
2022-12-18T20:36:23.550Z,8.93
2022-12-18T20:38:57.291Z,9.85
2022-12-18T20:41:26.259Z,9.85
2022-12-18T20:43:57.968Z,9.35
2022-12-18T20:46:24.946Z,9.60
2022-12-18T20:48:51.849Z,8.65
2022-12-18T20:51:20.786Z,8.65
2022-12-18T20:53:48.217Z,9.95
2022-12-18T20:56:21.913Z,9.30
2022-12-18T20:58:50.084Z,9.95
2022-12-18T21:01:20.252Z,11.10
2022-12-18T21:03:48.124Z,8.48
2022-12-18T21:06:17.102Z,7.93
2022-12-18T21:08:44.162Z,8.95
2022-12-18T21:11:35.880Z,10.82
2022-12-18T21:14:04.206Z,9.75
2022-12-18T21:16:31.349Z,11.45
2022-12-18T21:18:58.723Z,8.90
2022-12-18T21:21:27.003Z,8.55
2022-12-18T21:23:54.305Z,10.27
2022-12-18T21:26:27.103Z,8.60
2022-12-18T21:28:55.785Z,9.15
2022-12-18T21:31:25.037Z,10.55
2022-12-18T21:33:52.799Z,10.20
2022-12-18T21:36:24.959Z,10.60
2022-12-18T21:38:55.840Z,9.70
2022-12-18T21:41:42.819Z,10.57
2022-12-18T21:44:13.680Z,9.48
2022-12-18T21:46:43.360Z,11.23
2022-12-18T21:49:11.771Z,11.18
2022-12-18T21:51:39.467Z,10.00
2022-12-18T21:54:06.606Z,9.68
2022-12-18T21:56:52.168Z,10.60
2022-12-18T21:59:21.564Z,10.45
2022-12-18T22:01:50.485Z,10.85
2022-12-18T22:04:18.342Z,10.43
2022-12-18T22:06:45.790Z,10.18
2022-12-18T22:09:15.670Z,9.82
2022-12-18T22:11:42.562Z,11.30
2022-12-18T22:14:09.586Z,10.35
2022-12-18T22:16:36.477Z,10.93
2022-12-18T22:19:04.886Z,10.40
2022-12-18T22:21:33.677Z,9.93
2022-12-18T22:24:04.861Z,10.93
2022-12-18T22:26:39.523Z,9.07
2022-12-18T22:29:32.079Z,9.35
2022-12-18T22:32:01.235Z,8.63
2022-12-18T22:34:28.731Z,8.93
2022-12-18T22:36:55.886Z,9.43
2022-12-18T22:39:25.386Z,8.30
2022-12-18T22:41:52.935Z,8.73
2022-12-18T22:44:20.340Z,8.43
2022-12-18T22:46:52.207Z,9.73
2022-12-18T22:49:32.691Z,7.85
2022-12-18T22:52:01.677Z,8.43
2022-12-18T22:54:28.543Z,8.20
2022-12-18T22:56:55.589Z,8.60
2022-12-18T22:59:23.494Z,6.85
2022-12-18T23:01:54.248Z,7.28
2022-12-18T23:04:30.022Z,7.05
2022-12-18T23:07:04.269Z,8.05
2022-12-18T23:09:31.155Z,6.50
2022-12-18T23:11:57.923Z,6.90
2022-12-18T23:14:24.798Z,7.10
2022-12-18T23:16:53.093Z,7.15
2022-12-18T23:19:21.023Z,7.30
2022-12-18T23:21:50.792Z,7.47
2022-12-18T23:24:17.864Z,6.95
2022-12-18T23:26:44.732Z,6.82
2022-12-18T23:29:11.586Z,7.43
2022-12-18T23:31:40.068Z,6.57
2022-12-18T23:34:08.115Z,7.22
2022-12-18T23:36:46.272Z,7.60
2022-12-18T23:39:15.599Z,6.40
2022-12-18T23:41:56.402Z,5.82
2022-12-18T23:44:23.267Z,6.60
2022-12-18T23:46:50.156Z,6.07
2022-12-18T23:49:17.011Z,5.72
2022-12-18T23:51:43.826Z,5.93
2022-12-18T23:54:11.051Z,5.88
2022-12-18T23:56:38.023Z,5.78
2022-12-18T23:59:04.832Z,5.97
